Pastebin launched a little side project called VERYVIRAL.com, check it out ;-) Want more features on Pastebin? Sign Up, it's FREE!
Guest

Untitled

By: a guest on Jan 17th, 2011  |  syntax: None  |  size: 22.67 KB  |  views: 39  |  expires: Never
download  |  raw  |  embed  |  report abuse  |  print
Text below is selected. Please press Ctrl+C to copy to your clipboard. (⌘+C on Mac)
  1. 01:08:17 T:4844 M:696295424  NOTICE: -----------------------------------------------------------------------
  2. 01:08:17 T:4844 M:696270848  NOTICE: Starting XBMC, Platform: Windows XP Home Edition Service Pack 3 build 2600. Built on Dec 17 2010 (SVN:35647, compiler 1500)
  3. 01:08:17 T:4844 M:696266752  NOTICE: AMD Athlon(tm) II X2 250 Processor
  4. 01:08:17 T:4844 M:696266752  NOTICE: Desktop Resolution: 1024x768 32Bit at 60Hz
  5. 01:08:17 T:4844 M:696266752  NOTICE: Running with administrator rights
  6. 01:08:17 T:4844 M:696266752  NOTICE: special://xbmc/ is mapped to: C:\Program Files\XBMC
  7. 01:08:17 T:4844 M:696266752  NOTICE: special://xbmcbin/ is mapped to: C:\Program Files\XBMC
  8. 01:08:17 T:4844 M:696266752  NOTICE: special://masterprofile/ is mapped to: C:\Documents and Settings\Journeaux Family\Application Data\XBMC\userdata
  9. 01:08:17 T:4844 M:696266752  NOTICE: special://home/ is mapped to: C:\Documents and Settings\Journeaux Family\Application Data\XBMC
  10. 01:08:17 T:4844 M:696266752  NOTICE: special://temp/ is mapped to: C:\Documents and Settings\Journeaux Family\Application Data\XBMC\cache
  11. 01:08:17 T:4844 M:696266752  NOTICE: The executable running is: C:\Program Files\XBMC\XBMC.exe
  12. 01:08:17 T:4844 M:696266752  NOTICE: Log File is located: C:\Documents and Settings\Journeaux Family\Application Data\XBMC\xbmc.log
  13. 01:08:17 T:4844 M:696266752  NOTICE: -----------------------------------------------------------------------
  14. 01:08:17 T:4844 M:696246272  NOTICE: Setup SDL
  15. 01:08:17 T:4844 M:696057856  NOTICE: Found screen: Generic Television on ATI Radeon HD 2600 XT, adapter 0.
  16. 01:08:17 T:4844 M:696049664  NOTICE: Primary mode: 1024x768 @ 60.00 - Full Screen
  17. 01:08:17 T:4844 M:695955456  NOTICE: Additional mode: 640x480 @ 60.00 - Full Screen
  18. 01:08:17 T:4844 M:695955456  NOTICE: Additional mode: 640x480 @ 72.00 - Full Screen
  19. 01:08:17 T:4844 M:695955456  NOTICE: Additional mode: 640x480 @ 75.00 - Full Screen
  20. 01:08:17 T:4844 M:695955456  NOTICE: Additional mode: 640x480 @ 85.00 - Full Screen
  21. 01:08:17 T:4844 M:695955456  NOTICE: Additional mode: 640x480 @ 90.00 - Full Screen
  22. 01:08:17 T:4844 M:695955456  NOTICE: Additional mode: 640x480 @ 100.00 - Full Screen
  23. 01:08:17 T:4844 M:695955456  NOTICE: Additional mode: 640x480 @ 120.00 - Full Screen
  24. 01:08:17 T:4844 M:695955456  NOTICE: Additional mode: 640x480 @ 160.00 - Full Screen
  25. 01:08:17 T:4844 M:695955456  NOTICE: Additional mode: 640x480 @ 200.00 - Full Screen
  26. 01:08:17 T:4844 M:695955456  NOTICE: Additional mode: 720x480 @ 60.00 - Full Screen
  27. 01:08:17 T:4844 M:695955456  NOTICE: Additional mode: 720x480 @ 75.00 - Full Screen
  28. 01:08:17 T:4844 M:695955456  NOTICE: Additional mode: 720x480 @ 85.00 - Full Screen
  29. 01:08:17 T:4844 M:695955456  NOTICE: Additional mode: 800x600 @ 47.00 - Full Screen
  30. 01:08:17 T:4844 M:695955456  NOTICE: Additional mode: 800x600 @ 56.00 - Full Screen
  31. 01:08:17 T:4844 M:695955456  NOTICE: Additional mode: 800x600 @ 60.00 - Full Screen
  32. 01:08:17 T:4844 M:695951360  NOTICE: Additional mode: 800x600 @ 70.00 - Full Screen
  33. 01:08:17 T:4844 M:695943168  NOTICE: Additional mode: 800x600 @ 72.00 - Full Screen
  34. 01:08:17 T:4844 M:695943168  NOTICE: Additional mode: 800x600 @ 75.00 - Full Screen
  35. 01:08:17 T:4844 M:695943168  NOTICE: Additional mode: 800x600 @ 85.00 - Full Screen
  36. 01:08:17 T:4844 M:695943168  NOTICE: Additional mode: 800x600 @ 90.00 - Full Screen
  37. 01:08:17 T:4844 M:695943168  NOTICE: Additional mode: 800x600 @ 100.00 - Full Screen
  38. 01:08:17 T:4844 M:695943168  NOTICE: Additional mode: 800x600 @ 120.00 - Full Screen
  39. 01:08:17 T:4844 M:695943168  NOTICE: Additional mode: 800x600 @ 160.00 - Full Screen
  40. 01:08:17 T:4844 M:695943168  NOTICE: Additional mode: 800x600 @ 200.00 - Full Screen
  41. 01:08:17 T:4844 M:695943168  NOTICE: Additional mode: 848x480 @ 60.00 - Full Screen
  42. 01:08:17 T:4844 M:695943168  NOTICE: Additional mode: 848x480 @ 75.00 - Full Screen
  43. 01:08:17 T:4844 M:695943168  NOTICE: Additional mode: 848x480 @ 85.00 - Full Screen
  44. 01:08:17 T:4844 M:695943168  NOTICE: Additional mode: 1024x768 @ 43.00 - Full Screen
  45. 01:08:17 T:4844 M:695943168  NOTICE: Additional mode: 1024x768 @ 60.00 - Full Screen
  46. 01:08:17 T:4844 M:695939072  NOTICE: Additional mode: 1024x768 @ 70.00 - Full Screen
  47. 01:08:17 T:4844 M:695934976  NOTICE: Additional mode: 1024x768 @ 72.00 - Full Screen
  48. 01:08:17 T:4844 M:695934976  NOTICE: Additional mode: 1024x768 @ 75.00 - Full Screen
  49. 01:08:17 T:4844 M:695934976  NOTICE: Additional mode: 1024x768 @ 85.00 - Full Screen
  50. 01:08:17 T:4844 M:695934976  NOTICE: Additional mode: 1024x768 @ 90.00 - Full Screen
  51. 01:08:17 T:4844 M:695934976  NOTICE: Additional mode: 1024x768 @ 100.00 - Full Screen
  52. 01:08:17 T:4844 M:695934976  NOTICE: Additional mode: 1024x768 @ 120.00 - Full Screen
  53. 01:08:17 T:4844 M:695934976  NOTICE: Additional mode: 1024x768 @ 150.00 - Full Screen
  54. 01:08:17 T:4844 M:695934976  NOTICE: Additional mode: 1024x768 @ 160.00 - Full Screen
  55. 01:08:17 T:4844 M:695934976  NOTICE: Additional mode: 1024x768 @ 200.00 - Full Screen
  56. 01:08:17 T:4844 M:695934976  NOTICE: Additional mode: 1152x864 @ 43.00 - Full Screen
  57. 01:08:17 T:4844 M:695934976  NOTICE: Additional mode: 1152x864 @ 47.00 - Full Screen
  58. 01:08:17 T:4844 M:695934976  NOTICE: Additional mode: 1152x864 @ 60.00 - Full Screen
  59. 01:08:17 T:4844 M:695934976  NOTICE: Additional mode: 1152x864 @ 70.00 - Full Screen
  60. 01:08:17 T:4844 M:695934976  NOTICE: Additional mode: 1152x864 @ 75.00 - Full Screen
  61. 01:08:17 T:4844 M:695934976  NOTICE: Additional mode: 1152x864 @ 85.00 - Full Screen
  62. 01:08:17 T:4844 M:695934976  NOTICE: Additional mode: 1152x864 @ 100.00 - Full Screen
  63. 01:08:17 T:4844 M:695934976  NOTICE: Additional mode: 1280x720 @ 50.00 - Full Screen
  64. 01:08:17 T:4844 M:695934976  NOTICE: Additional mode: 1280x720 @ 60.00 - Full Screen
  65. 01:08:17 T:4844 M:695934976  NOTICE: Additional mode: 1280x720 @ 75.00 - Full Screen
  66. 01:08:17 T:4844 M:695934976  NOTICE: Additional mode: 1280x720 @ 85.00 - Full Screen
  67. 01:08:17 T:4844 M:695934976  NOTICE: Additional mode: 1280x768 @ 60.00 - Full Screen
  68. 01:08:17 T:4844 M:695922688  NOTICE: Additional mode: 1280x768 @ 75.00 - Full Screen
  69. 01:08:17 T:4844 M:695914496  NOTICE: Additional mode: 1280x768 @ 85.00 - Full Screen
  70. 01:08:17 T:4844 M:695914496  NOTICE: Additional mode: 1280x800 @ 60.00 - Full Screen
  71. 01:08:17 T:4844 M:695914496  NOTICE: Additional mode: 1280x800 @ 75.00 - Full Screen
  72. 01:08:17 T:4844 M:695914496  NOTICE: Additional mode: 1280x800 @ 85.00 - Full Screen
  73. 01:08:17 T:4844 M:695914496  NOTICE: Additional mode: 1280x800 @ 100.00 - Full Screen
  74. 01:08:17 T:4844 M:695914496  NOTICE: Additional mode: 1280x800 @ 160.00 - Full Screen
  75. 01:08:17 T:4844 M:695914496  NOTICE: Additional mode: 1280x800 @ 200.00 - Full Screen
  76. 01:08:17 T:4844 M:695914496  NOTICE: Additional mode: 1280x960 @ 60.00 - Full Screen
  77. 01:08:17 T:4844 M:695914496  NOTICE: Additional mode: 1280x960 @ 70.00 - Full Screen
  78. 01:08:17 T:4844 M:695914496  NOTICE: Additional mode: 1280x960 @ 72.00 - Full Screen
  79. 01:08:17 T:4844 M:695914496  NOTICE: Additional mode: 1280x960 @ 75.00 - Full Screen
  80. 01:08:17 T:4844 M:695914496  NOTICE: Additional mode: 1280x960 @ 85.00 - Full Screen
  81. 01:08:17 T:4844 M:695914496  NOTICE: Additional mode: 1280x960 @ 100.00 - Full Screen
  82. 01:08:17 T:4844 M:695914496  NOTICE: Additional mode: 1280x960 @ 120.00 - Full Screen
  83. 01:08:17 T:4844 M:695914496  NOTICE: Additional mode: 1280x960 @ 160.00 - Full Screen
  84. 01:08:17 T:4844 M:695914496  NOTICE: Additional mode: 1280x960 @ 200.00 - Full Screen
  85. 01:08:17 T:4844 M:695914496  NOTICE: Additional mode: 1280x1024 @ 43.00 - Full Screen
  86. 01:08:17 T:4844 M:695914496  NOTICE: Additional mode: 1280x1024 @ 47.00 - Full Screen
  87. 01:08:17 T:4844 M:695914496  NOTICE: Additional mode: 1280x1024 @ 60.00 - Full Screen
  88. 01:08:17 T:4844 M:695914496  NOTICE: Additional mode: 1280x1024 @ 70.00 - Full Screen
  89. 01:08:17 T:4844 M:695914496  NOTICE: Additional mode: 1280x1024 @ 75.00 - Full Screen
  90. 01:08:17 T:4844 M:695914496  NOTICE: Additional mode: 1280x1024 @ 85.00 - Full Screen
  91. 01:08:17 T:4844 M:695914496  NOTICE: Additional mode: 1280x1024 @ 90.00 - Full Screen
  92. 01:08:17 T:4844 M:695914496  NOTICE: Additional mode: 1280x1024 @ 100.00 - Full Screen
  93. 01:08:17 T:4844 M:695906304  NOTICE: Additional mode: 1280x1024 @ 120.00 - Full Screen
  94. 01:08:17 T:4844 M:695906304  NOTICE: Additional mode: 1280x1024 @ 160.00 - Full Screen
  95. 01:08:17 T:4844 M:695906304  NOTICE: Additional mode: 1280x1024 @ 180.00 - Full Screen
  96. 01:08:17 T:4844 M:695906304  NOTICE: Additional mode: 1360x768 @ 60.00 - Full Screen
  97. 01:08:17 T:4844 M:695906304  NOTICE: Additional mode: 1360x768 @ 75.00 - Full Screen
  98. 01:08:17 T:4844 M:695906304  NOTICE: Additional mode: 1360x768 @ 85.00 - Full Screen
  99. 01:08:17 T:4844 M:695902208  NOTICE: Additional mode: 1440x900 @ 60.00 - Full Screen
  100. 01:08:17 T:4844 M:695894016  NOTICE: Additional mode: 1440x900 @ 75.00 - Full Screen
  101. 01:08:17 T:4844 M:695894016  NOTICE: Additional mode: 1440x900 @ 85.00 - Full Screen
  102. 01:08:17 T:4844 M:695894016  NOTICE: Additional mode: 1600x1200 @ 60.00 - Full Screen
  103. 01:08:17 T:4844 M:695894016  NOTICE: Additional mode: 1600x1200 @ 70.00 - Full Screen
  104. 01:08:17 T:4844 M:695894016  NOTICE: Additional mode: 1600x1200 @ 75.00 - Full Screen
  105. 01:08:17 T:4844 M:695894016  NOTICE: Additional mode: 1600x1200 @ 85.00 - Full Screen
  106. 01:08:17 T:4844 M:695894016  NOTICE: Additional mode: 1600x1200 @ 100.00 - Full Screen
  107. 01:08:17 T:4844 M:695894016  NOTICE: Additional mode: 1600x1200 @ 120.00 - Full Screen
  108. 01:08:17 T:4844 M:695894016  NOTICE: Additional mode: 1680x1050 @ 60.00 - Full Screen
  109. 01:08:17 T:4844 M:695894016  NOTICE: Additional mode: 1680x1050 @ 75.00 - Full Screen
  110. 01:08:17 T:4844 M:695894016  NOTICE: Additional mode: 1680x1050 @ 85.00 - Full Screen
  111. 01:08:17 T:4844 M:695894016  NOTICE: Additional mode: 1680x1050 @ 100.00 - Full Screen
  112. 01:08:17 T:4844 M:695894016  NOTICE: Additional mode: 1792x1344 @ 60.00 - Full Screen
  113. 01:08:17 T:4844 M:695894016  NOTICE: Additional mode: 1792x1344 @ 72.00 - Full Screen
  114. 01:08:17 T:4844 M:695894016  NOTICE: Additional mode: 1792x1344 @ 75.00 - Full Screen
  115. 01:08:17 T:4844 M:695894016  NOTICE: Additional mode: 1792x1344 @ 85.00 - Full Screen
  116. 01:08:17 T:4844 M:695894016  NOTICE: Additional mode: 1792x1344 @ 90.00 - Full Screen
  117. 01:08:17 T:4844 M:695894016  NOTICE: Additional mode: 1792x1344 @ 100.00 - Full Screen
  118. 01:08:17 T:4844 M:695894016  NOTICE: Additional mode: 1800x1440 @ 60.00 - Full Screen
  119. 01:08:17 T:4844 M:695894016  NOTICE: Additional mode: 1800x1440 @ 70.00 - Full Screen
  120. 01:08:17 T:4844 M:695894016  NOTICE: Additional mode: 1800x1440 @ 72.00 - Full Screen
  121. 01:08:17 T:4844 M:695894016  NOTICE: Additional mode: 1800x1440 @ 75.00 - Full Screen
  122. 01:08:17 T:4844 M:695894016  NOTICE: Additional mode: 1800x1440 @ 85.00 - Full Screen
  123. 01:08:17 T:4844 M:695894016  NOTICE: Additional mode: 1800x1440 @ 90.00 - Full Screen
  124. 01:08:17 T:4844 M:695894016  NOTICE: Additional mode: 1800x1440 @ 100.00 - Full Screen
  125. 01:08:17 T:4844 M:695894016  NOTICE: Additional mode: 1856x1392 @ 60.00 - Full Screen
  126. 01:08:17 T:4844 M:695894016  NOTICE: Additional mode: 1856x1392 @ 72.00 - Full Screen
  127. 01:08:17 T:4844 M:695894016  NOTICE: Additional mode: 1856x1392 @ 75.00 - Full Screen
  128. 01:08:17 T:4844 M:695894016  NOTICE: Additional mode: 1856x1392 @ 85.00 - Full Screen
  129. 01:08:17 T:4844 M:695894016  NOTICE: Additional mode: 1856x1392 @ 90.00 - Full Screen
  130. 01:08:17 T:4844 M:695894016  NOTICE: Additional mode: 1856x1392 @ 100.00 - Full Screen
  131. 01:08:17 T:4844 M:695894016  NOTICE: Additional mode: 1920x1080 @ 30.00 - Full Screen
  132. 01:08:17 T:4844 M:695894016  NOTICE: Additional mode: 1920x1080 @ 60.00 - Full Screen
  133. 01:08:17 T:4844 M:695894016  NOTICE: Additional mode: 1920x1080 @ 75.00 - Full Screen
  134. 01:08:17 T:4844 M:695894016  NOTICE: Additional mode: 1920x1080 @ 85.00 - Full Screen
  135. 01:08:17 T:4844 M:695894016  NOTICE: Additional mode: 1920x1080 @ 100.00 - Full Screen
  136. 01:08:17 T:4844 M:695894016  NOTICE: Additional mode: 1920x1080 @ 120.00 - Full Screen
  137. 01:08:17 T:4844 M:695894016  NOTICE: Additional mode: 1920x1200 @ 60.00 - Full Screen
  138. 01:08:17 T:4844 M:695894016  NOTICE: Additional mode: 1920x1200 @ 75.00 - Full Screen
  139. 01:08:17 T:4844 M:695894016  NOTICE: Additional mode: 1920x1200 @ 85.00 - Full Screen
  140. 01:08:17 T:4844 M:695889920  NOTICE: Additional mode: 1920x1200 @ 100.00 - Full Screen
  141. 01:08:17 T:4844 M:695889920  NOTICE: Additional mode: 1920x1440 @ 60.00 - Full Screen
  142. 01:08:17 T:4844 M:695889920  NOTICE: Additional mode: 1920x1440 @ 75.00 - Full Screen
  143. 01:08:17 T:4844 M:695889920  NOTICE: Additional mode: 1920x1440 @ 85.00 - Full Screen
  144. 01:08:17 T:4844 M:695889920  NOTICE: Additional mode: 1920x1440 @ 90.00 - Full Screen
  145. 01:08:17 T:4844 M:695889920  NOTICE: Additional mode: 2048x1536 @ 60.00 - Full Screen
  146. 01:08:17 T:4844 M:695873536  NOTICE: Additional mode: 2048x1536 @ 66.00 - Full Screen
  147. 01:08:17 T:4844 M:695873536  NOTICE: Additional mode: 2048x1536 @ 70.00 - Full Screen
  148. 01:08:17 T:4844 M:695873536  NOTICE: Additional mode: 2048x1536 @ 75.00 - Full Screen
  149. 01:08:17 T:4844 M:695873536  NOTICE: Additional mode: 2048x1536 @ 85.00 - Full Screen
  150. 01:08:17 T:4844 M:695963648  NOTICE: load settings...
  151. 01:08:17 T:4844 M:695881728  NOTICE: special://profile/ is mapped to: special://masterprofile/
  152. 01:08:17 T:4844 M:695869440  NOTICE: loading special://masterprofile/guisettings.xml
  153. 01:08:17 T:4844 M:695132160  NOTICE: Getting hardware information now...
  154. 01:08:17 T:4844 M:695123968  NOTICE: Checking resolution 12
  155. 01:08:17 T:4844 M:695058432  NOTICE: Loading player core factory settings from special://xbmc/system/playercorefactory.xml.
  156. 01:08:17 T:4844 M:695029760  NOTICE: Loaded playercorefactory configuration
  157. 01:08:17 T:4844 M:695021568  NOTICE: Loading player core factory settings from special://masterprofile/playercorefactory.xml.
  158. 01:08:17 T:4844 M:695021568  NOTICE: special://masterprofile/playercorefactory.xml does not exist. Skipping.
  159. 01:08:17 T:4844 M:695017472  NOTICE: No advancedsettings.xml to load (special://masterprofile/advancedsettings.xml)
  160. 01:08:17 T:4844 M:695013376  NOTICE: Default DVD Player: dvdplayer
  161. 01:08:17 T:4844 M:695013376  NOTICE: Default Video Player: dvdplayer
  162. 01:08:17 T:4844 M:695013376  NOTICE: Default Audio Player: paplayer
  163. 01:08:17 T:4844 M:695406592  NOTICE: Loading media sources from special://masterprofile/sources.xml
  164. 01:08:21 T:4844 M:690372608  NOTICE: initializing playlistplayer
  165. 01:08:21 T:4844 M:690360320  NOTICE: DONE initializing playlistplayer
  166. 01:08:24 T:4844 M:682811392  NOTICE: CApplication::UpdateLibraries - Starting video library startup scan
  167. 01:08:24 T:4844 M:681877504  NOTICE: initialize done
  168. 01:08:24 T:4844 M:681877504  NOTICE: Running the application...
  169. 01:08:24 T:4844 M:681848832  NOTICE: ES: Starting event server
  170. 01:08:24 T:2360 M:681779200  NOTICE: ES: Starting UDP Event server on 127.0.0.1:9777
  171. 01:08:24 T:2360 M:681775104  NOTICE: UDP: Listening on port 9777
  172. 01:08:24 T:4852 M:681750528  NOTICE: VideoInfoScanner: Starting scan ..
  173. 01:09:00 T:4844 M:660688896 WARNING: XFILE::CVideoDatabaseDirectory::GetLabel - Unknown nodetype requested 11
  174. 01:09:04 T:4844 M:661475328 WARNING: XFILE::CVideoDatabaseDirectory::GetLabel - Unknown nodetype requested 12
  175. 01:09:25 T:2896 M:660434944  NOTICE: -->Python Interpreter Initialized<--
  176. 01:09:26 T:2896 M:659824640  NOTICE: {'limit': '4'}
  177. 01:09:49 T:4844 M:655548416  NOTICE: DVDPlayer: Opening: F:\TV Shows\Torchwood\Season 2\Torchwood.S02E12.ws.pdtv.xvid-river.avi
  178. 01:09:49 T:4844 M:655544320 WARNING: CDVDMessageQueue(player)::Put MSGQ_NOT_INITIALIZED
  179. 01:09:49 T:276 M:655527936  NOTICE: Creating InputStream
  180. 01:09:49 T:276 M:655245312  NOTICE: Creating Demuxer
  181. 01:09:50 T:276 M:644710400  NOTICE: Opening video stream: 0 source: 256
  182. 01:09:50 T:276 M:644710400  NOTICE: Creating video codec with codec id: 13
  183. 01:09:50 T:276 M:644636672  NOTICE: CDVDVideoCodecFFmpeg::Open() Using codec: MPEG-4 part 2
  184. 01:09:50 T:276 M:644599808  NOTICE: Creating video thread
  185. 01:09:50 T:276 M:644583424  NOTICE: Opening audio stream: 1 source: 256
  186. 01:09:50 T:276 M:644583424  NOTICE: Finding audio codec for: 86017
  187. 01:09:50 T:276 M:644276224  NOTICE: Creating audio thread
  188. 01:09:50 T:5984 M:644251648  NOTICE: running thread: CDVDPlayerAudio::Process()
  189. 01:09:50 T:5984 M:644141056  NOTICE: Creating audio device with codec id: 86017, channels: 2, sample rate: 48000, no pass-through
  190. 01:09:50 T:1316 M:638304256  NOTICE: running thread: video_thread
  191. 01:09:50 T:1316 M:636739584  NOTICE:  fps: 25.000000, pwidth: 640, pheight: 352, dwidth: 640, dheight: 352
  192. 01:09:50 T:1316 M:636739584  NOTICE: Display resolution DESKTOP : 1024x768 @ 60.00 - Full Screen (12)
  193. 01:09:52 T:4852 M:644202496  NOTICE: VideoInfoScanner: Finished scan. Scanning for video info took 01:28
  194. 01:10:50 T:2360 M:647630848  NOTICE: ES: Client  from 127.0.0.1 timed out
  195. 02:00:49 T:4844 M:642813952  NOTICE: Previous line repeats 3 times.
  196. 02:00:49 T:4844 M:642813952  NOTICE: CDVDPlayer::CloseFile()
  197. 02:00:49 T:4844 M:642682880  NOTICE: DVDPlayer: waiting for threads to exit
  198. 02:00:49 T:276 M:642682880  NOTICE: CDVDPlayer::OnExit()
  199. 02:00:49 T:276 M:642682880  NOTICE: DVDPlayer: closing audio stream
  200. 02:00:49 T:276 M:642682880  NOTICE: Closing audio stream
  201. 02:00:49 T:276 M:642682880  NOTICE: Waiting for audio thread to exit
  202. 02:00:49 T:5984 M:642682880   ERROR: CDVDAudio::AddPackets - failed to add leftover bytes to render
  203. 02:00:49 T:5984 M:642682880  NOTICE: thread end: CDVDPlayerAudio::OnExit()
  204. 02:00:49 T:276 M:642695168  NOTICE: Closing audio device
  205. 02:00:49 T:276 M:642940928  NOTICE: Deleting audio codec
  206. 02:00:49 T:276 M:642977792  NOTICE: DVDPlayer: closing video stream
  207. 02:00:49 T:276 M:642977792  NOTICE: Closing video stream
  208. 02:00:49 T:276 M:642977792  NOTICE: waiting for video thread to exit
  209. 02:00:49 T:1316 M:642985984  NOTICE: thread end: video_thread
  210. 02:00:49 T:276 M:643112960  NOTICE: deleting video codec
  211. 02:00:49 T:276 M:644288512  NOTICE: CDVDPlayer::OnExit() deleting demuxer
  212. 02:00:49 T:276 M:649011200  NOTICE: CDVDPlayer::OnExit() deleting input stream
  213. 02:00:49 T:4844 M:649060352  NOTICE: DVDPlayer: finished waiting
  214. 02:00:49 T:4844 M:647884800 WARNING: XFILE::CVideoDatabaseDirectory::GetLabel - Unknown nodetype requested 12
  215. 02:00:49 T:4844 M:643117056  NOTICE: CDVDPlayer::CloseFile()
  216. 02:00:49 T:4844 M:643117056 WARNING: CDVDMessageQueue(player)::Put MSGQ_NOT_INITIALIZED
  217. 02:00:49 T:4844 M:643117056  NOTICE: DVDPlayer: waiting for threads to exit
  218. 02:00:49 T:4844 M:643108864  NOTICE: DVDPlayer: finished waiting
  219. 02:00:50 T:4844 M:647282688 WARNING: XFILE::CVideoDatabaseDirectory::GetLabel - Unknown nodetype requested 12
  220. 02:01:04 T:4844 M:631361536 WARNING: Previous line repeats 1 times.
  221. 02:01:04 T:4844 M:631361536  NOTICE: DVDPlayer: Opening: F:\TV Shows\Torchwood\Season 2\torchwood.S02E13.exit_wounds.hdtv_xvid-fov.avi
  222. 02:01:04 T:4844 M:631361536 WARNING: CDVDMessageQueue(player)::Put MSGQ_NOT_INITIALIZED
  223. 02:01:04 T:3016 M:631345152  NOTICE: Creating InputStream
  224. 02:01:04 T:3016 M:631189504  NOTICE: Creating Demuxer
  225. 02:01:04 T:3016 M:622075904  NOTICE: Opening video stream: 0 source: 256
  226. 02:01:04 T:3016 M:622075904  NOTICE: Creating video codec with codec id: 13
  227. 02:01:04 T:3016 M:622075904  NOTICE: CDVDVideoCodecFFmpeg::Open() Using codec: MPEG-4 part 2
  228. 02:01:04 T:3016 M:622051328  NOTICE: Creating video thread
  229. 02:01:04 T:3016 M:622030848  NOTICE: Opening audio stream: 1 source: 256
  230. 02:01:04 T:3016 M:622030848  NOTICE: Finding audio codec for: 86017
  231. 02:01:04 T:3016 M:622002176  NOTICE: Creating audio thread
  232. 02:01:04 T:3920 M:621977600  NOTICE: running thread: CDVDPlayerAudio::Process()
  233. 02:01:04 T:3920 M:621961216  NOTICE: Creating audio device with codec id: 86017, channels: 2, sample rate: 48000, no pass-through
  234. 02:01:04 T:4200 M:621330432  NOTICE: running thread: video_thread
  235. 02:01:04 T:4200 M:623169536  NOTICE:  fps: 25.000000, pwidth: 624, pheight: 352, dwidth: 624, dheight: 352
  236. 02:01:05 T:4200 M:618225664 WARNING: CRenderManager::Configure - timeout waiting for previous frame
  237. 02:01:05 T:4200 M:618225664  NOTICE: Display resolution DESKTOP : 1024x768 @ 60.00 - Full Screen (12)
  238. 02:02:05 T:2360 M:639393792  NOTICE: ES: Client  from 127.0.0.1 timed out
  239. 02:10:22 T:3920 M:643604480  NOTICE: Previous line repeats 2 times.
  240. 02:10:22 T:3920 M:643604480 WARNING: CDVDMessageQueue(audio)::Get - asked for new data packet, with nothing available
  241. 02:11:31 T:2360 M:636633088 WARNING: Previous line repeats 27 times.
  242. 02:11:31 T:2360 M:636633088  NOTICE: ES: Client  from 127.0.0.1 timed out
  243. 02:53:44 T:4844 M:637554688  NOTICE: Previous line repeats 2 times.
  244. 02:53:44 T:4844 M:637554688  NOTICE: CDVDPlayer::CloseFile()
  245. 02:53:44 T:4844 M:637554688  NOTICE: DVDPlayer: waiting for threads to exit
  246. 02:53:44 T:3016 M:637554688  NOTICE: CDVDPlayer::OnExit()
  247. 02:53:44 T:3016 M:637554688  NOTICE: DVDPlayer: closing audio stream
  248. 02:53:44 T:3016 M:637554688  NOTICE: Closing audio stream
  249. 02:53:44 T:3016 M:637554688  NOTICE: Waiting for audio thread to exit
  250. 02:53:44 T:3920 M:637554688   ERROR: CDVDAudio::AddPackets - failed to add leftover bytes to render
  251. 02:53:44 T:3920 M:637554688  NOTICE: thread end: CDVDPlayerAudio::OnExit()
  252. 02:53:44 T:3016 M:637566976  NOTICE: Closing audio device
  253. 02:53:44 T:3016 M:637775872  NOTICE: Deleting audio codec
  254. 02:53:44 T:3016 M:637775872  NOTICE: DVDPlayer: closing video stream
  255. 02:53:44 T:3016 M:637804544  NOTICE: Closing video stream
  256. 02:53:44 T:3016 M:637804544  NOTICE: waiting for video thread to exit
  257. 02:53:44 T:4200 M:637804544  NOTICE: thread end: video_thread
  258. 02:53:44 T:3016 M:637984768  NOTICE: deleting video codec
  259. 02:53:44 T:3016 M:639643648  NOTICE: CDVDPlayer::OnExit() deleting demuxer
  260. 02:53:44 T:3016 M:644292608  NOTICE: CDVDPlayer::OnExit() deleting input stream
  261. 02:53:44 T:4844 M:644358144  NOTICE: DVDPlayer: finished waiting
  262. 02:53:45 T:4844 M:651833344 WARNING: XFILE::CVideoDatabaseDirectory::GetLabel - Unknown nodetype requested 12
  263. 02:53:45 T:4844 M:647360512  NOTICE: CDVDPlayer::CloseFile()
  264. 02:53:45 T:4844 M:647360512 WARNING: CDVDMessageQueue(player)::Put MSGQ_NOT_INITIALIZED
  265. 02:53:45 T:4844 M:647360512  NOTICE: DVDPlayer: waiting for threads to exit
  266. 02:53:45 T:4844 M:647360512  NOTICE: DVDPlayer: finished waiting
  267. 02:53:46 T:4844 M:649277440 WARNING: XFILE::CVideoDatabaseDirectory::GetLabel - Unknown nodetype requested 12
  268. 02:54:49 T:2360 M:663662592  NOTICE: ES: Client  from 127.0.0.1 timed out
  269. 07:30:42 T:4844 M:677191680  NOTICE: Storing total System Uptime
  270. 07:30:42 T:4844 M:677285888  NOTICE: Saving settings
  271. 07:30:42 T:4844 M:677130240  NOTICE: stop all
  272. 07:30:42 T:4844 M:677130240  NOTICE: ES: Stopping event server
  273. 07:30:43 T:2360 M:677167104  NOTICE: ES: UDP Event server stopped
  274. 07:30:43 T:4844 M:677199872  NOTICE: stop sap announcement listener
  275. 07:30:43 T:4844 M:677199872  NOTICE: clean cached files!
  276. 07:30:43 T:4844 M:677195776  NOTICE: unload skin
  277. 07:30:43 T:4844 M:682278912  NOTICE: stop python
  278. 07:30:43 T:4844 M:684109824  NOTICE: stopped
  279. 07:30:43 T:4844 M:684109824  NOTICE: destroy
  280. 07:30:43 T:4844 M:684130304  NOTICE: unload sections